sensor_id;sensor_type;location;lat;lon;timestamp;temperature;humidity
67862;DHT22;54665;51.462;6.698;2022-12-01T00:00:31;6.16;92.81
67862;DHT22;54665;51.462;6.698;2022-12-01T00:02:57;6.16;92.77
67862;DHT22;54665;51.462;6.698;2022-12-01T00:05:23;6.16;92.71
67862;DHT22;54665;51.462;6.698;2022-12-01T00:07:48;6.13;92.92
67862;DHT22;54665;51.462;6.698;2022-12-01T00:10:14;6.14;92.81
67862;DHT22;54665;51.462;6.698;2022-12-01T00:12:54;6.14;92.71
67862;DHT22;54665;51.462;6.698;2022-12-01T00:15:20;6.14;92.79
67862;DHT22;54665;51.462;6.698;2022-12-01T00:17:46;6.11;92.99
67862;DHT22;54665;51.462;6.698;2022-12-01T00:20:14;6.09;92.83
67862;DHT22;54665;51.462;6.698;2022-12-01T00:22:44;6.10;92.96
67862;DHT22;54665;51.462;6.698;2022-12-01T00:25:10;6.10;92.98
67862;DHT22;54665;51.462;6.698;2022-12-01T00:27:36;6.05;93.05
67862;DHT22;54665;51.462;6.698;2022-12-01T00:30:02;6.03;93.14
67862;DHT22;54665;51.462;6.698;2022-12-01T00:32:29;6.06;93.42
67862;DHT22;54665;51.462;6.698;2022-12-01T00:34:54;6.00;93.29
67862;DHT22;54665;51.462;6.698;2022-12-01T00:37:20;6.00;93.26
67862;DHT22;54665;51.462;6.698;2022-12-01T00:39:45;6.02;93.21
67862;DHT22;54665;51.462;6.698;2022-12-01T00:42:11;6.05;93.15
67862;DHT22;54665;51.462;6.698;2022-12-01T00:44:36;6.07;93.18
67862;DHT22;54665;51.462;6.698;2022-12-01T00:47:01;6.06;93.15
67862;DHT22;54665;51.462;6.698;2022-12-01T00:49:27;6.03;93.25
67862;DHT22;54665;51.462;6.698;2022-12-01T00:51:52;6.06;93.08
67862;DHT22;54665;51.462;6.698;2022-12-01T00:54:18;6.09;93.11
67862;DHT22;54665;51.462;6.698;2022-12-01T00:56:43;6.09;93.17
67862;DHT22;54665;51.462;6.698;2022-12-01T00:59:09;6.07;93.10
67862;DHT22;54665;51.462;6.698;2022-12-01T01:01:34;6.09;93.09
67862;DHT22;54665;51.462;6.698;2022-12-01T01:03:59;6.10;93.04
67862;DHT22;54665;51.462;6.698;2022-12-01T01:06:25;6.06;93.05
67862;DHT22;54665;51.462;6.698;2022-12-01T01:08:50;6.09;93.13
67862;DHT22;54665;51.462;6.698;2022-12-01T01:11:16;6.05;93.22
67862;DHT22;54665;51.462;6.698;2022-12-01T01:13:41;6.00;93.42
67862;DHT22;54665;51.462;6.698;2022-12-01T01:16:13;6.03;93.24
67862;DHT22;54665;51.462;6.698;2022-12-01T01:18:39;6.05;93.27
67862;DHT22;54665;51.462;6.698;2022-12-01T01:21:07;6.03;93.27
67862;DHT22;54665;51.462;6.698;2022-12-01T01:23:33;6.05;93.38
67862;DHT22;54665;51.462;6.698;2022-12-01T01:26:05;6.05;93.41
67862;DHT22;54665;51.462;6.698;2022-12-01T01:28:31;6.02;93.61
67862;DHT22;54665;51.462;6.698;2022-12-01T01:30:57;5.99;93.88
67862;DHT22;54665;51.462;6.698;2022-12-01T01:33:23;6.02;93.88
67862;DHT22;54665;51.462;6.698;2022-12-01T01:35:48;5.99;93.87
67862;DHT22;54665;51.462;6.698;2022-12-01T01:38:14;5.96;93.95
67862;DHT22;54665;51.462;6.698;2022-12-01T01:40:46;5.95;93.82
67862;DHT22;54665;51.462;6.698;2022-12-01T01:43:16;5.93;93.93
67862;DHT22;54665;51.462;6.698;2022-12-01T01:45:42;5.93;93.89
67862;DHT22;54665;51.462;6.698;2022-12-01T01:48:10;5.95;93.86
67862;DHT22;54665;51.462;6.698;2022-12-01T01:50:37;5.96;93.85
67862;DHT22;54665;51.462;6.698;2022-12-01T01:53:07;5.97;93.86
67862;DHT22;54665;51.462;6.698;2022-12-01T01:55:35;5.97;93.97
67862;DHT22;54665;51.462;6.698;2022-12-01T01:58:03;6.00;93.86
67862;DHT22;54665;51.462;6.698;2022-12-01T02:00:29;5.95;93.90
67862;DHT22;54665;51.462;6.698;2022-12-01T02:02:58;5.96;93.96
67862;DHT22;54665;51.462;6.698;2022-12-01T02:05:27;5.95;94.11
67862;DHT22;54665;51.462;6.698;2022-12-01T02:07:55;5.99;94.20
67862;DHT22;54665;51.462;6.698;2022-12-01T02:18:28;5.97;94.28
67862;DHT22;54665;51.462;6.698;2022-12-01T02:21:22;5.99;94.16
67862;DHT22;54665;51.462;6.698;2022-12-01T02:24:19;6.03;94.16
67862;DHT22;54665;51.462;6.698;2022-12-01T02:26:52;6.02;93.97
67862;DHT22;54665;51.462;6.698;2022-12-01T02:29:30;6.00;94.00
67862;DHT22;54665;51.462;6.698;2022-12-01T02:34:41;6.02;93.90
67862;DHT22;54665;51.462;6.698;2022-12-01T02:40:27;6.06;93.86
67862;DHT22;54665;51.462;6.698;2022-12-01T02:43:05;6.00;93.70
67862;DHT22;54665;51.462;6.698;2022-12-01T02:48:07;5.96;93.46
67862;DHT22;54665;51.462;6.698;2022-12-01T02:50:36;5.96;93.32
67862;DHT22;54665;51.462;6.698;2022-12-01T02:53:04;5.99;93.23
67862;DHT22;54665;51.462;6.698;2022-12-01T02:55:30;5.96;93.12
67862;DHT22;54665;51.462;6.698;2022-12-01T02:57:56;5.99;93.03
67862;DHT22;54665;51.462;6.698;2022-12-01T03:00:21;5.93;92.68
67862;DHT22;54665;51.462;6.698;2022-12-01T03:02:58;5.95;92.49
67862;DHT22;54665;51.462;6.698;2022-12-01T03:05:57;5.92;92.41
67862;DHT22;54665;51.462;6.698;2022-12-01T03:08:55;5.90;92.46
67862;DHT22;54665;51.462;6.698;2022-12-01T03:11:33;5.96;92.22
67862;DHT22;54665;51.462;6.698;2022-12-01T03:14:30;5.97;92.04
67862;DHT22;54665;51.462;6.698;2022-12-01T03:17:03;6.00;91.44
67862;DHT22;54665;51.462;6.698;2022-12-01T03:19:52;6.05;90.92
67862;DHT22;54665;51.462;6.698;2022-12-01T03:22:27;6.02;90.65
67862;DHT22;54665;51.462;6.698;2022-12-01T03:24:54;6.03;90.54
67862;DHT22;54665;51.462;6.698;2022-12-01T03:27:28;6.00;90.41
67862;DHT22;54665;51.462;6.698;2022-12-01T03:30:04;6.03;90.50
67862;DHT22;54665;51.462;6.698;2022-12-01T03:32:44;6.05;90.59
67862;DHT22;54665;51.462;6.698;2022-12-01T03:35:19;6.06;90.73
67862;DHT22;54665;51.462;6.698;2022-12-01T03:38:27;6.10;90.75
67862;DHT22;54665;51.462;6.698;2022-12-01T03:40:59;6.10;90.47
67862;DHT22;54665;51.462;6.698;2022-12-01T03:43:32;6.07;90.79
67862;DHT22;54665;51.462;6.698;2022-12-01T03:46:20;6.07;91.05
67862;DHT22;54665;51.462;6.698;2022-12-01T03:48:46;6.03;91.29
67862;DHT22;54665;51.462;6.698;2022-12-01T03:51:15;6.02;91.32
67862;DHT22;54665;51.462;6.698;2022-12-01T03:53:54;5.97;91.38
67862;DHT22;54665;51.462;6.698;2022-12-01T03:56:24;5.96;91.40
67862;DHT22;54665;51.462;6.698;2022-12-01T03:58:58;5.93;90.97
67862;DHT22;54665;51.462;6.698;2022-12-01T04:01:29;5.95;91.08
67862;DHT22;54665;51.462;6.698;2022-12-01T04:04:08;6.00;91.19
67862;DHT22;54665;51.462;6.698;2022-12-01T04:06:34;5.99;91.15
67862;DHT22;54665;51.462;6.698;2022-12-01T04:08:59;6.03;91.21
67862;DHT22;54665;51.462;6.698;2022-12-01T04:11:25;6.02;91.45
67862;DHT22;54665;51.462;6.698;2022-12-01T04:14:09;6.02;90.69
67862;DHT22;54665;51.462;6.698;2022-12-01T04:16:34;5.99;90.91
67862;DHT22;54665;51.462;6.698;2022-12-01T04:18:59;5.97;90.82
67862;DHT22;54665;51.462;6.698;2022-12-01T04:21:25;5.97;90.87
67862;DHT22;54665;51.462;6.698;2022-12-01T04:23:50;5.93;91.15
67862;DHT22;54665;51.462;6.698;2022-12-01T04:26:26;5.95;91.19
67862;DHT22;54665;51.462;6.698;2022-12-01T04:28:51;5.92;91.44
67862;DHT22;54665;51.462;6.698;2022-12-01T04:31:17;5.97;91.36
67862;DHT22;54665;51.462;6.698;2022-12-01T04:33:47;5.93;91.47
67862;DHT22;54665;51.462;6.698;2022-12-01T04:36:12;5.89;91.31
67862;DHT22;54665;51.462;6.698;2022-12-01T04:38:38;5.90;91.61
67862;DHT22;54665;51.462;6.698;2022-12-01T04:41:10;5.90;91.50
67862;DHT22;54665;51.462;6.698;2022-12-01T04:43:37;5.89;91.34
67862;DHT22;54665;51.462;6.698;2022-12-01T04:46:03;5.89;91.44
67862;DHT22;54665;51.462;6.698;2022-12-01T04:48:29;5.92;91.54
67862;DHT22;54665;51.462;6.698;2022-12-01T04:50:55;5.95;91.41
67862;DHT22;54665;51.462;6.698;2022-12-01T04:53:20;5.95;91.65
67862;DHT22;54665;51.462;6.698;2022-12-01T04:55:46;5.95;91.56
67862;DHT22;54665;51.462;6.698;2022-12-01T04:58:11;5.97;91.42
67862;DHT22;54665;51.462;6.698;2022-12-01T05:00:37;5.92;91.31
67862;DHT22;54665;51.462;6.698;2022-12-01T05:03:13;5.96;91.51
67862;DHT22;54665;51.462;6.698;2022-12-01T05:05:39;5.97;91.69
67862;DHT22;54665;51.462;6.698;2022-12-01T05:08:04;5.95;91.67
67862;DHT22;54665;51.462;6.698;2022-12-01T05:10:30;5.97;91.62
67862;DHT22;54665;51.462;6.698;2022-12-01T05:13:01;5.97;91.45
67862;DHT22;54665;51.462;6.698;2022-12-01T05:15:38;5.97;91.06
67862;DHT22;54665;51.462;6.698;2022-12-01T05:18:04;5.97;91.29
67862;DHT22;54665;51.462;6.698;2022-12-01T05:20:31;5.92;91.74
67862;DHT22;54665;51.462;6.698;2022-12-01T05:23:14;5.82;91.93
67862;DHT22;54665;51.462;6.698;2022-12-01T05:25:40;5.82;92.12
67862;DHT22;54665;51.462;6.698;2022-12-01T05:28:06;5.90;91.93
67862;DHT22;54665;51.462;6.698;2022-12-01T05:30:32;5.90;91.55
67862;DHT22;54665;51.462;6.698;2022-12-01T05:32:57;5.88;91.31
67862;DHT22;54665;51.462;6.698;2022-12-01T05:35:22;5.89;91.41
67862;DHT22;54665;51.462;6.698;2022-12-01T05:37:48;5.86;91.29
67862;DHT22;54665;51.462;6.698;2022-12-01T05:40:14;5.86;91.37
67862;DHT22;54665;51.462;6.698;2022-12-01T05:42:39;5.89;91.44
67862;DHT22;54665;51.462;6.698;2022-12-01T05:45:05;5.86;91.08
67862;DHT22;54665;51.462;6.698;2022-12-01T05:47:30;5.88;91.06
67862;DHT22;54665;51.462;6.698;2022-12-01T05:49:56;5.89;90.91
67862;DHT22;54665;51.462;6.698;2022-12-01T05:52:31;5.89;90.91
67862;DHT22;54665;51.462;6.698;2022-12-01T05:54:57;5.88;90.85
67862;DHT22;54665;51.462;6.698;2022-12-01T05:57:22;5.86;90.78
67862;DHT22;54665;51.462;6.698;2022-12-01T05:59:47;5.89;90.68
67862;DHT22;54665;51.462;6.698;2022-12-01T06:02:13;5.85;90.46
67862;DHT22;54665;51.462;6.698;2022-12-01T06:04:38;5.85;90.73
67862;DHT22;54665;51.462;6.698;2022-12-01T06:07:03;5.82;90.91
67862;DHT22;54665;51.462;6.698;2022-12-01T06:09:29;5.82;90.89
67862;DHT22;54665;51.462;6.698;2022-12-01T06:11:54;5.80;90.87
67862;DHT22;54665;51.462;6.698;2022-12-01T06:14:19;5.86;90.98
67862;DHT22;54665;51.462;6.698;2022-12-01T06:16:45;5.85;90.98
67862;DHT22;54665;51.462;6.698;2022-12-01T06:19:10;5.85;90.99
67862;DHT22;54665;51.462;6.698;2022-12-01T06:21:35;5.89;91.01
67862;DHT22;54665;51.462;6.698;2022-12-01T06:24:01;5.93;90.92
67862;DHT22;54665;51.462;6.698;2022-12-01T06:26:26;5.95;90.87
67862;DHT22;54665;51.462;6.698;2022-12-01T06:28:51;5.93;90.86
67862;DHT22;54665;51.462;6.698;2022-12-01T06:31:17;5.90;91.07
67862;DHT22;54665;51.462;6.698;2022-12-01T06:33:42;5.88;91.02
67862;DHT22;54665;51.462;6.698;2022-12-01T06:36:08;5.95;91.08
67862;DHT22;54665;51.462;6.698;2022-12-01T06:38:35;5.93;91.13
67862;DHT22;54665;51.462;6.698;2022-12-01T06:41:01;5.95;91.25
67862;DHT22;54665;51.462;6.698;2022-12-01T06:43:27;5.97;91.16
67862;DHT22;54665;51.462;6.698;2022-12-01T06:45:52;5.95;91.22
67862;DHT22;54665;51.462;6.698;2022-12-01T06:48:18;5.95;91.27
67862;DHT22;54665;51.462;6.698;2022-12-01T06:50:43;5.93;91.39
67862;DHT22;54665;51.462;6.698;2022-12-01T06:53:09;5.92;91.38
67862;DHT22;54665;51.462;6.698;2022-12-01T06:55:37;5.93;91.47
67862;DHT22;54665;51.462;6.698;2022-12-01T06:58:03;5.90;91.47
67862;DHT22;54665;51.462;6.698;2022-12-01T07:00:28;5.96;91.34
67862;DHT22;54665;51.462;6.698;2022-12-01T07:02:54;5.89;90.76
67862;DHT22;54665;51.462;6.698;2022-12-01T07:05:19;5.92;90.55
67862;DHT22;54665;51.462;6.698;2022-12-01T07:07:45;5.93;90.67
67862;DHT22;54665;51.462;6.698;2022-12-01T07:10:11;5.95;90.97
67862;DHT22;54665;51.462;6.698;2022-12-01T07:12:37;5.92;90.68
67862;DHT22;54665;51.462;6.698;2022-12-01T07:15:05;5.93;90.53
67862;DHT22;54665;51.462;6.698;2022-12-01T07:17:32;5.93;90.61
67862;DHT22;54665;51.462;6.698;2022-12-01T07:19:58;5.96;90.88
67862;DHT22;54665;51.462;6.698;2022-12-01T07:22:23;5.96;90.78
67862;DHT22;54665;51.462;6.698;2022-12-01T07:24:49;5.95;90.59
67862;DHT22;54665;51.462;6.698;2022-12-01T07:27:14;5.99;90.30
67862;DHT22;54665;51.462;6.698;2022-12-01T07:29:39;5.97;90.10
67862;DHT22;54665;51.462;6.698;2022-12-01T07:32:05;6.00;90.15
67862;DHT22;54665;51.462;6.698;2022-12-01T07:34:30;5.97;90.26
67862;DHT22;54665;51.462;6.698;2022-12-01T07:36:55;5.96;90.04
67862;DHT22;54665;51.462;6.698;2022-12-01T07:39:21;5.97;89.92
67862;DHT22;54665;51.462;6.698;2022-12-01T07:41:46;5.97;89.85
67862;DHT22;54665;51.462;6.698;2022-12-01T07:44:12;5.97;90.19
67862;DHT22;54665;51.462;6.698;2022-12-01T07:46:37;5.99;90.15
67862;DHT22;54665;51.462;6.698;2022-12-01T07:49:06;5.96;90.20
67862;DHT22;54665;51.462;6.698;2022-12-01T07:51:32;5.96;90.60
67862;DHT22;54665;51.462;6.698;2022-12-01T07:54:03;5.99;90.82
67862;DHT22;54665;51.462;6.698;2022-12-01T07:56:30;6.02;90.72
67862;DHT22;54665;51.462;6.698;2022-12-01T07:58:55;6.05;90.91
67862;DHT22;54665;51.462;6.698;2022-12-01T08:01:21;6.02;90.87
67862;DHT22;54665;51.462;6.698;2022-12-01T08:03:48;6.03;90.93
67862;DHT22;54665;51.462;6.698;2022-12-01T08:06:15;5.95;91.42
67862;DHT22;54665;51.462;6.698;2022-12-01T08:08:41;5.97;91.50
67862;DHT22;54665;51.462;6.698;2022-12-01T08:11:13;5.96;91.72
67862;DHT22;54665;51.462;6.698;2022-12-01T08:13:39;6.00;91.62
67862;DHT22;54665;51.462;6.698;2022-12-01T08:16:06;5.96;91.55
67862;DHT22;54665;51.462;6.698;2022-12-01T08:18:33;5.96;91.89
67862;DHT22;54665;51.462;6.698;2022-12-01T08:20:59;5.92;91.71
67862;DHT22;54665;51.462;6.698;2022-12-01T08:23:25;5.93;91.80
67862;DHT22;54665;51.462;6.698;2022-12-01T08:25:50;5.93;91.91
67862;DHT22;54665;51.462;6.698;2022-12-01T08:28:17;5.93;91.82
67862;DHT22;54665;51.462;6.698;2022-12-01T08:30:43;5.92;91.73
67862;DHT22;54665;51.462;6.698;2022-12-01T08:33:08;5.95;91.69
67862;DHT22;54665;51.462;6.698;2022-12-01T08:35:36;5.92;91.81
67862;DHT22;54665;51.462;6.698;2022-12-01T08:38:03;5.88;91.81
67862;DHT22;54665;51.462;6.698;2022-12-01T08:40:28;5.92;91.85
67862;DHT22;54665;51.462;6.698;2022-12-01T08:42:54;5.95;91.48
67862;DHT22;54665;51.462;6.698;2022-12-01T08:45:19;5.95;91.12
67862;DHT22;54665;51.462;6.698;2022-12-01T08:47:45;5.95;90.96
67862;DHT22;54665;51.462;6.698;2022-12-01T08:50:10;5.96;90.82
67862;DHT22;54665;51.462;6.698;2022-12-01T08:52:36;6.00;90.78
67862;DHT22;54665;51.462;6.698;2022-12-01T08:55:02;6.02;90.66
67862;DHT22;54665;51.462;6.698;2022-12-01T08:57:28;6.03;90.66
67862;DHT22;54665;51.462;6.698;2022-12-01T08:59:54;6.02;90.62
67862;DHT22;54665;51.462;6.698;2022-12-01T09:02:19;6.00;90.63
67862;DHT22;54665;51.462;6.698;2022-12-01T09:04:48;6.05;90.68
67862;DHT22;54665;51.462;6.698;2022-12-01T09:07:15;6.07;90.63
67862;DHT22;54665;51.462;6.698;2022-12-01T09:09:43;6.10;90.59
67862;DHT22;54665;51.462;6.698;2022-12-01T09:12:09;6.11;90.34
67862;DHT22;54665;51.462;6.698;2022-12-01T09:14:39;6.11;90.52
67862;DHT22;54665;51.462;6.698;2022-12-01T09:17:06;6.05;90.21
67862;DHT22;54665;51.462;6.698;2022-12-01T09:19:31;6.06;90.44
67862;DHT22;54665;51.462;6.698;2022-12-01T09:21:57;6.05;90.22
67862;DHT22;54665;51.462;6.698;2022-12-01T09:24:23;6.05;90.02
67862;DHT22;54665;51.462;6.698;2022-12-01T09:26:48;6.09;90.35
67862;DHT22;54665;51.462;6.698;2022-12-01T09:29:15;6.10;89.90
67862;DHT22;54665;51.462;6.698;2022-12-01T09:31:41;6.10;89.72
67862;DHT22;54665;51.462;6.698;2022-12-01T09:34:13;6.14;89.52
67862;DHT22;54665;51.462;6.698;2022-12-01T09:36:38;6.14;89.03
67862;DHT22;54665;51.462;6.698;2022-12-01T09:39:07;6.16;88.88
67862;DHT22;54665;51.462;6.698;2022-12-01T09:41:39;6.17;89.13
67862;DHT22;54665;51.462;6.698;2022-12-01T09:46:52;6.21;89.48
67862;DHT22;54665;51.462;6.698;2022-12-01T09:49:23;6.20;89.83
67862;DHT22;54665;51.462;6.698;2022-12-01T09:51:51;6.13;89.48
67862;DHT22;54665;51.462;6.698;2022-12-01T09:54:18;6.11;89.21
67862;DHT22;54665;51.462;6.698;2022-12-01T09:56:46;6.11;89.04
67862;DHT22;54665;51.462;6.698;2022-12-01T09:59:22;6.10;89.33
67862;DHT22;54665;51.462;6.698;2022-12-01T10:02:01;6.10;89.06
67862;DHT22;54665;51.462;6.698;2022-12-01T10:07:03;6.14;89.16
67862;DHT22;54665;51.462;6.698;2022-12-01T10:09:50;6.11;89.34
67862;DHT22;54665;51.462;6.698;2022-12-01T10:12:18;6.11;89.14
67862;DHT22;54665;51.462;6.698;2022-12-01T10:14:45;6.10;89.51
67862;DHT22;54665;51.462;6.698;2022-12-01T10:17:24;6.10;89.40
67862;DHT22;54665;51.462;6.698;2022-12-01T10:20:08;6.11;89.25
67862;DHT22;54665;51.462;6.698;2022-12-01T10:25:37;6.07;89.48
67862;DHT22;54665;51.462;6.698;2022-12-01T10:30:50;6.16;89.71
67862;DHT22;54665;51.462;6.698;2022-12-01T10:33:22;6.11;89.62
67862;DHT22;54665;51.462;6.698;2022-12-01T10:35:48;6.13;89.50
67862;DHT22;54665;51.462;6.698;2022-12-01T10:38:34;6.20;89.58
67862;DHT22;54665;51.462;6.698;2022-12-01T10:41:02;6.19;89.68
67862;DHT22;54665;51.462;6.698;2022-12-01T10:43:34;6.16;89.90
67862;DHT22;54665;51.462;6.698;2022-12-01T10:46:07;6.14;89.79
67862;DHT22;54665;51.462;6.698;2022-12-01T10:48:53;6.19;89.76
67862;DHT22;54665;51.462;6.698;2022-12-01T10:51:19;6.17;89.66
67862;DHT22;54665;51.462;6.698;2022-12-01T10:53:47;6.10;90.02
67862;DHT22;54665;51.462;6.698;2022-12-01T10:56:15;6.09;90.07
67862;DHT22;54665;51.462;6.698;2022-12-01T11:01:21;6.07;90.29
67862;DHT22;54665;51.462;6.698;2022-12-01T11:03:59;6.07;90.19
67862;DHT22;54665;51.462;6.698;2022-12-01T11:06:28;6.10;90.20
67862;DHT22;54665;51.462;6.698;2022-12-01T11:08:57;6.03;90.15
67862;DHT22;54665;51.462;6.698;2022-12-01T11:13:51;6.10;90.33
67862;DHT22;54665;51.462;6.698;2022-12-01T11:16:38;6.10;90.11
67862;DHT22;54665;51.462;6.698;2022-12-01T11:21:55;6.11;90.10
67862;DHT22;54665;51.462;6.698;2022-12-01T11:24:40;6.17;89.62
67862;DHT22;54665;51.462;6.698;2022-12-01T11:27:18;6.17;89.75
67862;DHT22;54665;51.462;6.698;2022-12-01T11:29:46;6.17;89.52
67862;DHT22;54665;51.462;6.698;2022-12-01T11:35:05;6.26;89.43
67862;DHT22;54665;51.462;6.698;2022-12-01T11:37:41;6.30;88.88
67862;DHT22;54665;51.462;6.698;2022-12-01T11:40:23;6.29;88.40
67862;DHT22;54665;51.462;6.698;2022-12-01T11:42:51;6.27;88.40
67862;DHT22;54665;51.462;6.698;2022-12-01T11:48:06;6.23;88.25
67862;DHT22;54665;51.462;6.698;2022-12-01T11:50:36;6.23;88.55
67862;DHT22;54665;51.462;6.698;2022-12-01T11:53:02;6.14;88.55
67862;DHT22;54665;51.462;6.698;2022-12-01T11:55:29;6.11;88.96
67862;DHT22;54665;51.462;6.698;2022-12-01T11:58:00;6.20;88.59
67862;DHT22;54665;51.462;6.698;2022-12-01T12:00:32;6.20;88.62
67862;DHT22;54665;51.462;6.698;2022-12-01T12:13:48;6.29;88.81
67862;DHT22;54665;51.462;6.698;2022-12-01T12:16:29;6.36;88.83
67862;DHT22;54665;51.462;6.698;2022-12-01T12:24:19;6.33;88.58
67862;DHT22;54665;51.462;6.698;2022-12-01T12:27:08;6.24;88.75
67862;DHT22;54665;51.462;6.698;2022-12-01T12:32:40;6.17;89.16
67862;DHT22;54665;51.462;6.698;2022-12-01T12:40:59;6.13;89.48
67862;DHT22;54665;51.462;6.698;2022-12-01T12:43:34;6.07;89.55
67862;DHT22;54665;51.462;6.698;2022-12-01T12:46:09;6.13;89.15
67862;DHT22;54665;51.462;6.698;2022-12-01T12:51:22;6.26;88.47
67862;DHT22;54665;51.462;6.698;2022-12-01T12:53:59;6.33;88.39
67862;DHT22;54665;51.462;6.698;2022-12-01T12:56:29;6.36;88.04
67862;DHT22;54665;51.462;6.698;2022-12-01T12:59:24;6.38;87.50
67862;DHT22;54665;51.462;6.698;2022-12-01T13:02:09;6.37;86.65
67862;DHT22;54665;51.462;6.698;2022-12-01T13:04:41;6.36;86.87
67862;DHT22;54665;51.462;6.698;2022-12-01T13:09:45;6.36;86.95
67862;DHT22;54665;51.462;6.698;2022-12-01T13:12:30;6.40;86.81
67862;DHT22;54665;51.462;6.698;2022-12-01T13:15:12;6.40;86.58
67862;DHT22;54665;51.462;6.698;2022-12-01T13:17:42;6.41;86.55
67862;DHT22;54665;51.462;6.698;2022-12-01T13:20:13;6.40;86.43
67862;DHT22;54665;51.462;6.698;2022-12-01T13:22:39;6.34;86.53
67862;DHT22;54665;51.462;6.698;2022-12-01T13:25:06;6.36;86.59
67862;DHT22;54665;51.462;6.698;2022-12-01T13:27:34;6.33;86.45
67862;DHT22;54665;51.462;6.698;2022-12-01T13:30:01;6.31;86.32
67862;DHT22;54665;51.462;6.698;2022-12-01T13:34:58;6.33;86.33
67862;DHT22;54665;51.462;6.698;2022-12-01T13:37:26;6.36;86.09
67862;DHT22;54665;51.462;6.698;2022-12-01T13:39:53;6.36;85.67
67862;DHT22;54665;51.462;6.698;2022-12-01T13:42:24;6.38;85.70
67862;DHT22;54665;51.462;6.698;2022-12-01T13:44:57;6.38;85.59
67862;DHT22;54665;51.462;6.698;2022-12-01T13:49:50;6.36;85.57
67862;DHT22;54665;51.462;6.698;2022-12-01T13:57:33;6.34;84.54
67862;DHT22;54665;51.462;6.698;2022-12-01T14:02:28;6.38;85.14
67862;DHT22;54665;51.462;6.698;2022-12-01T14:04:54;6.44;84.97
67862;DHT22;54665;51.462;6.698;2022-12-01T14:09:47;6.41;85.15
67862;DHT22;54665;51.462;6.698;2022-12-01T14:12:19;6.37;85.78
67862;DHT22;54665;51.462;6.698;2022-12-01T14:14:51;6.34;85.40
67862;DHT22;54665;51.462;6.698;2022-12-01T14:17:35;6.36;85.82
67862;DHT22;54665;51.462;6.698;2022-12-01T14:20:21;6.30;85.81
67862;DHT22;54665;51.462;6.698;2022-12-01T14:23:11;6.29;86.08
67862;DHT22;54665;51.462;6.698;2022-12-01T14:25:38;6.26;86.24
67862;DHT22;54665;51.462;6.698;2022-12-01T14:28:12;6.24;86.33
67862;DHT22;54665;51.462;6.698;2022-12-01T14:38:41;6.26;85.81
67862;DHT22;54665;51.462;6.698;2022-12-01T14:41:24;6.23;85.44
67862;DHT22;54665;51.462;6.698;2022-12-01T14:43:55;6.20;85.37
67862;DHT22;54665;51.462;6.698;2022-12-01T14:46:43;6.21;85.20
67862;DHT22;54665;51.462;6.698;2022-12-01T14:49:17;6.20;85.52
67862;DHT22;54665;51.462;6.698;2022-12-01T14:51:46;6.20;85.20
67862;DHT22;54665;51.462;6.698;2022-12-01T14:54:20;6.20;85.29
67862;DHT22;54665;51.462;6.698;2022-12-01T14:56:51;6.19;85.60
67862;DHT22;54665;51.462;6.698;2022-12-01T14:59:21;6.14;84.98
67862;DHT22;54665;51.462;6.698;2022-12-01T15:01:50;6.16;85.22
67862;DHT22;54665;51.462;6.698;2022-12-01T15:04:17;6.09;85.30
67862;DHT22;54665;51.462;6.698;2022-12-01T15:06:42;6.13;85.27
67862;DHT22;54665;51.462;6.698;2022-12-01T15:11:47;6.09;85.49
67862;DHT22;54665;51.462;6.698;2022-12-01T15:15:12;6.06;85.04
67862;DHT22;54665;51.462;6.698;2022-12-01T15:17:27;6.05;84.68
67862;DHT22;54665;51.462;6.698;2022-12-01T15:19:52;6.05;84.21
67862;DHT22;54665;51.462;6.698;2022-12-01T15:22:18;5.97;84.14
67862;DHT22;54665;51.462;6.698;2022-12-01T15:24:44;6.02;84.15
67862;DHT22;54665;51.462;6.698;2022-12-01T15:27:30;6.05;84.49
67862;DHT22;54665;51.462;6.698;2022-12-01T15:29:57;6.00;84.41
67862;DHT22;54665;51.462;6.698;2022-12-01T15:32:28;6.06;84.77
67862;DHT22;54665;51.462;6.698;2022-12-01T15:34:55;6.03;85.23
67862;DHT22;54665;51.462;6.698;2022-12-01T15:37:23;6.05;85.17
67862;DHT22;54665;51.462;6.698;2022-12-01T15:42:30;5.97;84.75
67862;DHT22;54665;51.462;6.698;2022-12-01T15:50:04;5.99;85.62
67862;DHT22;54665;51.462;6.698;2022-12-01T15:52:30;5.97;85.50
67862;DHT22;54665;51.462;6.698;2022-12-01T15:55:00;5.97;85.16
67862;DHT22;54665;51.462;6.698;2022-12-01T15:57:26;5.99;84.68
67862;DHT22;54665;51.462;6.698;2022-12-01T15:59:54;5.93;84.38
67862;DHT22;54665;51.462;6.698;2022-12-01T16:02:29;5.92;84.34
67862;DHT22;54665;51.462;6.698;2022-12-01T16:05:14;5.88;84.37
67862;DHT22;54665;51.462;6.698;2022-12-01T16:07:40;5.78;84.72
67862;DHT22;54665;51.462;6.698;2022-12-01T16:10:27;5.79;85.15
67862;DHT22;54665;51.462;6.698;2022-12-01T16:12:52;5.79;84.65
67862;DHT22;54665;51.462;6.698;2022-12-01T16:15:42;5.75;83.85
67862;DHT22;54665;51.462;6.698;2022-12-01T16:18:25;5.76;84.06
67862;DHT22;54665;51.462;6.698;2022-12-01T16:20:52;5.78;84.40
67862;DHT22;54665;51.462;6.698;2022-12-01T16:23:22;5.78;84.68
67862;DHT22;54665;51.462;6.698;2022-12-01T16:25:49;5.73;84.27
67862;DHT22;54665;51.462;6.698;2022-12-01T16:28:21;5.72;84.45
67862;DHT22;54665;51.462;6.698;2022-12-01T16:30:47;5.72;84.83
67862;DHT22;54665;51.462;6.698;2022-12-01T16:33:15;5.72;85.12
67862;DHT22;54665;51.462;6.698;2022-12-01T16:35:42;5.68;84.27
67862;DHT22;54665;51.462;6.698;2022-12-01T16:38:13;5.66;84.55
67862;DHT22;54665;51.462;6.698;2022-12-01T16:40:43;5.66;84.50
67862;DHT22;54665;51.462;6.698;2022-12-01T16:43:13;5.65;84.64
67862;DHT22;54665;51.462;6.698;2022-12-01T16:45:39;5.62;84.30
67862;DHT22;54665;51.462;6.698;2022-12-01T16:48:05;5.63;84.40
67862;DHT22;54665;51.462;6.698;2022-12-01T16:50:30;5.65;84.48
67862;DHT22;54665;51.462;6.698;2022-12-01T16:52:55;5.65;84.44
67862;DHT22;54665;51.462;6.698;2022-12-01T16:55:43;5.63;84.37
67862;DHT22;54665;51.462;6.698;2022-12-01T16:58:10;5.62;84.17
67862;DHT22;54665;51.462;6.698;2022-12-01T17:00:35;5.62;84.17
67862;DHT22;54665;51.462;6.698;2022-12-01T17:03:01;5.62;84.30
67862;DHT22;54665;51.462;6.698;2022-12-01T17:05:27;5.62;84.53
67862;DHT22;54665;51.462;6.698;2022-12-01T17:07:52;5.59;84.83
67862;DHT22;54665;51.462;6.698;2022-12-01T17:10:18;5.58;85.35
67862;DHT22;54665;51.462;6.698;2022-12-01T17:12:44;5.52;85.50
67862;DHT22;54665;51.462;6.698;2022-12-01T17:15:10;5.52;85.91
67862;DHT22;54665;51.462;6.698;2022-12-01T17:17:36;5.52;86.13
67862;DHT22;54665;51.462;6.698;2022-12-01T17:20:03;5.49;86.59
67862;DHT22;54665;51.462;6.698;2022-12-01T17:22:29;5.52;86.82
67862;DHT22;54665;51.462;6.698;2022-12-01T17:24:54;5.55;86.45
67862;DHT22;54665;51.462;6.698;2022-12-01T17:27:21;5.51;86.78
67862;DHT22;54665;51.462;6.698;2022-12-01T17:29:47;5.47;87.04
67862;DHT22;54665;51.462;6.698;2022-12-01T17:32:13;5.51;86.74
67862;DHT22;54665;51.462;6.698;2022-12-01T17:34:38;5.49;86.78
67862;DHT22;54665;51.462;6.698;2022-12-01T17:37:04;5.51;86.43
67862;DHT22;54665;51.462;6.698;2022-12-01T17:39:29;5.51;86.32
67862;DHT22;54665;51.462;6.698;2022-12-01T17:41:55;5.52;86.32
67862;DHT22;54665;51.462;6.698;2022-12-01T17:44:20;5.58;86.53